Nikiski, Alaska
Current Conditions -  °F | °C
As of 8:38 PM on Saturday 22 Nov 2014 (Local Time) from PAEN Reporting Station
Light Snow Light Snow  
Wind Chill: 24°   Ceiling: 2800
Heat Index: 29°   Visibility: 3mi
Dew Point: 27°   Wind: 5mph
Humidity: 92%   Direction: 70°ENE
Pressure: 29.21"   Gusts: NA
Location:  60.72°N, 151.38°W
Report Text: PAEN 230538Z 07004KT 3SM -SN BR BKN028 OVC034 M02/M03 A2921 RMK AO2 SNB07 P0000 T10171028
Loading
Personal Weather Stations






























Interactive Weather Map New forecast layout! Learn more

10-Day Weather Forecast

Advertisements
Track Severe Weather on mobile